Cordell, OK (73632)

2:17 PM CDT on August 24, 2016 (GMT -0500)
Clinton-Sherman | | Change Station

Elev 1923 ft 35.34 °N, 99.20 °W | Updated 24 minutes ago

Clear
Clear
90 °F
Feels Like 92 °F
N
16
Wind Variable Wind from SSW
Gusts 23 mph

Today
High -- | Low -- °F
--% Chance of Precip.
Yesterday
High -- | Low -- °F
Precip. -- in
Pressure 29.96 in
Visibility 10.0 miles
Clouds Clear
Heat Index 92 °F
Dew Point 65 °F
Humidity 43%
Rainfall 0.00 in
Snow Depth Not available.
7:02 AM 8:12 PM
Waning Gibbous, 54% visible
METAR KCSM 241853Z 21014G20KT 10SM CLR 32/18 A3004 RMK AO2 SLP146 T03220183
Pressure 29.96 in
Visibility 10.0 miles
Clouds Clear
Heat Index 92 °F
Dew Point 65 °F
Humidity 43%
Rainfall 0.00 in
Snow Depth Not available.
7:02 AM 8:12 PM
Waning Gibbous, 54% visible
METAR KCSM 241853Z 21014G20KT 10SM CLR 32/18 A3004 RMK AO2 SLP146 T03220183

10-Day Weather Forecast

Almanac

Astronomy

Aug. 24, 2016 Rise Set
Actual Time
Civil Twilight
Nautical Twilight
Astronomical Twilight
Moon
Length of Visible Light
Length of Day
Tomorrow will be .
, % of the Moon is Illuminated

Today's Extremes

State Highs State Lows

Community

WunderPhotos

Upload Photos

1,934,688 photos uploaded!

WunderBlog® & News

Nearby

Air Quality

  Air Quality AQ Index Pollutant
Not available.

Snow Depth

Station Depth Elevation

Earthquake Activity

City Distance Mag. Time & Date
Minimum magnitude displayed is 2.5.

Coastal Water Temperatures

Place Temperature

Stations

Nearby Weather Stations

Station Location Temp. Windchill Dew Point Humidity Wind Precip. Elev Updated Type
                   

Watches & Warnings

There are currently no watches in effect.